createdAt,value
2022-09-23T00:01:47.862Z,91.85
2022-09-23T00:04:17.341Z,91.53
2022-09-23T00:06:46.482Z,91.14
2022-09-23T00:09:15.486Z,91.25
2022-09-23T00:11:44.549Z,91.51
2022-09-23T00:14:13.496Z,91.81
2022-09-23T00:16:43.295Z,91.79
2022-09-23T00:19:12.145Z,92.44
2022-09-23T00:21:41.557Z,92.24
2022-09-23T00:24:11.488Z,92.17
2022-09-23T00:26:40.303Z,91.92
2022-09-23T00:29:09.586Z,92.14
2022-09-23T00:31:38.488Z,92.41
2022-09-23T00:34:07.983Z,92.45
2022-09-23T00:36:37.035Z,92.43
2022-09-23T00:39:06.379Z,93.01
2022-09-23T00:41:36.438Z,92.79
2022-09-23T00:45:00.209Z,92.70
2022-09-23T00:47:57.930Z,93.82
2022-09-23T00:50:37.715Z,93.82
2022-09-23T00:53:10.830Z,94.33
2022-09-23T00:55:50.692Z,94.50
2022-09-23T00:58:32.287Z,94.48
2022-09-23T01:01:04.124Z,94.52
2022-09-23T01:03:39.383Z,93.98
2022-09-23T01:06:14.147Z,94.24
2022-09-23T01:08:51.567Z,94.32
2022-09-23T01:11:42.170Z,93.71
2022-09-23T01:14:30.496Z,94.86
2022-09-23T01:17:31.549Z,94.68
2022-09-23T01:20:37.471Z,94.13
2022-09-23T01:23:25.291Z,93.96
2022-09-23T01:26:13.896Z,94.61
2022-09-23T01:29:08.039Z,95.14
2022-09-23T01:31:48.158Z,95.02
2022-09-23T01:34:40.683Z,95.74
2022-09-23T01:37:20.474Z,95.12
2022-09-23T01:40:05.591Z,95.06
2022-09-23T01:42:50.533Z,94.93
2022-09-23T01:45:40.377Z,95.36
2022-09-23T01:48:15.021Z,95.01
2022-09-23T01:51:11.140Z,94.88
2022-09-23T01:54:08.110Z,94.35
2022-09-23T01:56:44.823Z,93.90
2022-09-23T01:59:27.800Z,93.34
2022-09-23T02:02:16.500Z,93.08
2022-09-23T02:04:55.271Z,92.80
2022-09-23T02:07:40.764Z,92.41
2022-09-23T02:10:27.802Z,92.06
2022-09-23T02:13:07.824Z,92.49
2022-09-23T02:15:43.084Z,91.83
2022-09-23T02:18:36.959Z,90.59
2022-09-23T02:21:10.523Z,90.50
2022-09-23T02:23:56.634Z,89.42
2022-09-23T02:26:41.546Z,89.83
2022-09-23T02:29:33.282Z,89.41
2022-09-23T02:32:26.135Z,89.11
2022-09-23T02:35:11.461Z,89.03
2022-09-23T02:38:18.522Z,88.38
2022-09-23T02:41:07.618Z,87.42
2022-09-23T02:43:56.336Z,86.15
2022-09-23T02:46:29.888Z,85.43
2022-09-23T02:49:25.528Z,84.88
2022-09-23T02:51:59.124Z,83.85
2022-09-23T02:54:31.476Z,83.67
2022-09-23T02:57:12.309Z,84.64
2022-09-23T02:59:45.501Z,85.63
2022-09-23T03:02:19.476Z,85.04
2022-09-23T03:05:05.469Z,84.57
2022-09-23T03:08:11.937Z,83.85
2022-09-23T03:11:06.690Z,81.64
2022-09-23T03:14:06.770Z,81.07
2022-09-23T03:17:17.043Z,81.63
2022-09-23T03:20:04.140Z,81.16
2022-09-23T03:22:46.196Z,80.40
2022-09-23T03:25:26.921Z,79.57
2022-09-23T03:28:02.495Z,79.99
2022-09-23T03:30:39.431Z,80.25
2022-09-23T03:33:15.196Z,79.30
2022-09-23T03:36:25.572Z,78.48
2022-09-23T03:39:06.468Z,77.37
2022-09-23T03:41:53.601Z,77.22
2022-09-23T03:44:26.716Z,78.10
2022-09-23T03:47:09.953Z,77.60
2022-09-23T03:50:02.023Z,77.79
2022-09-23T03:52:36.710Z,77.92
2022-09-23T03:55:16.561Z,78.05
2022-09-23T03:57:52.015Z,77.42
2022-09-23T04:00:23.679Z,78.61
2022-09-23T04:03:10.876Z,78.56
2022-09-23T04:05:54.964Z,79.09
2022-09-23T04:08:30.400Z,79.43
2022-09-23T04:11:15.181Z,80.05
2022-09-23T04:13:51.588Z,80.73
2022-09-23T04:16:26.091Z,81.12
2022-09-23T04:18:58.805Z,80.97
2022-09-23T04:21:33.508Z,80.56
2022-09-23T04:24:06.483Z,79.92
2022-09-23T04:26:39.665Z,79.76
2022-09-23T04:29:13.778Z,79.20
2022-09-23T04:31:45.626Z,78.03
2022-09-23T04:34:19.986Z,77.52
2022-09-23T04:36:54.983Z,77.09
2022-09-23T04:39:27.675Z,77.13
2022-09-23T04:42:04.725Z,77.58
2022-09-23T04:44:37.528Z,76.71
2022-09-23T04:47:17.483Z,75.63
2022-09-23T04:49:51.493Z,74.91
2022-09-23T04:52:25.882Z,75.33
2022-09-23T04:54:58.801Z,75.46
2022-09-23T04:57:32.654Z,75.87
2022-09-23T05:00:06.422Z,75.43
2022-09-23T05:03:02.449Z,74.11
2022-09-23T05:05:37.579Z,73.70
2022-09-23T05:08:10.485Z,73.15
2022-09-23T05:10:47.339Z,73.11
2022-09-23T05:13:20.543Z,73.16
2022-09-23T05:15:52.401Z,72.22
2022-09-23T05:18:24.178Z,73.54
2022-09-23T05:21:06.971Z,74.21
2022-09-23T05:23:43.185Z,74.42
2022-09-23T05:26:17.795Z,74.86
2022-09-23T05:28:50.930Z,74.94
2022-09-23T05:31:36.398Z,74.28
2022-09-23T05:34:27.533Z,73.97
2022-09-23T05:37:16.349Z,74.91
2022-09-23T05:40:02.944Z,75.34
2022-09-23T05:42:38.727Z,74.67
2022-09-23T05:45:12.056Z,74.83
2022-09-23T05:47:56.072Z,74.68
2022-09-23T05:50:31.206Z,75.75
2022-09-23T05:53:06.638Z,75.63
2022-09-23T05:55:39.557Z,77.10
2022-09-23T06:01:01.910Z,77.42
2022-09-23T06:03:30.950Z,77.56
2022-09-23T06:05:59.972Z,78.06
2022-09-23T06:08:29.418Z,79.42
2022-09-23T06:10:59.463Z,79.94
2022-09-23T06:13:28.826Z,80.81
2022-09-23T06:15:59.617Z,86.78
2022-09-23T06:18:28.822Z,88.83
2022-09-23T06:21:01.487Z,91.03
2022-09-23T06:23:31.666Z,92.73
2022-09-23T06:28:50.123Z,94.12
2022-09-23T06:31:24.164Z,93.01
2022-09-23T06:34:02.426Z,93.80
2022-09-23T06:36:46.424Z,95.70
2022-09-23T06:39:17.011Z,95.28
2022-09-23T06:41:46.736Z,93.68
2022-09-23T06:44:16.648Z,94.29
2022-09-23T06:46:48.163Z,94.64
2022-09-23T06:49:21.201Z,94.75
2022-09-23T06:51:51.431Z,93.70
2022-09-23T06:54:21.381Z,93.69
2022-09-23T06:56:50.308Z,93.35
2022-09-23T06:59:19.795Z,91.85
2022-09-23T07:01:49.293Z,92.87
2022-09-23T07:04:18.972Z,92.00
2022-09-23T07:06:47.926Z,92.19
2022-09-23T07:09:17.027Z,92.92
2022-09-23T07:11:48.464Z,93.56
2022-09-23T07:14:17.379Z,94.00
2022-09-23T07:16:46.616Z,95.56
2022-09-23T07:19:15.714Z,97.94
2022-09-23T07:21:45.064Z,99.64
2022-09-23T07:24:14.237Z,99.96
2022-09-23T07:26:45.683Z,100.00
2022-09-23T07:29:44.088Z,100.00
2022-09-23T07:32:18.321Z,100.00
2022-09-23T07:34:48.425Z,100.00
2022-09-23T07:37:18.675Z,100.00
2022-09-23T07:39:47.959Z,100.00
2022-09-23T07:42:17.021Z,100.00
2022-09-23T07:44:47.186Z,100.00
2022-09-23T07:47:16.779Z,100.00
2022-09-23T07:49:45.957Z,100.00
2022-09-23T07:52:15.205Z,100.00
2022-09-23T07:54:44.346Z,100.00
2022-09-23T07:57:13.245Z,100.00
2022-09-23T07:59:44.485Z,100.00
2022-09-23T08:02:16.003Z,100.00
2022-09-23T08:04:50.245Z,100.00
2022-09-23T08:07:20.089Z,100.00
2022-09-23T08:09:49.826Z,100.00
2022-09-23T08:12:20.892Z,100.00
2022-09-23T08:14:50.013Z,100.00
2022-09-23T08:17:19.475Z,100.00
2022-09-23T08:19:48.746Z,100.00
2022-09-23T08:22:18.176Z,100.00
2022-09-23T08:24:47.086Z,100.00
2022-09-23T08:27:16.257Z,100.00
2022-09-23T08:29:46.044Z,100.00
2022-09-23T08:32:15.579Z,100.00
2022-09-23T08:34:45.057Z,100.00
2022-09-23T08:37:14.603Z,100.00
2022-09-23T08:39:43.423Z,100.00
2022-09-23T08:42:33.543Z,100.00
2022-09-23T08:45:06.166Z,100.00
2022-09-23T08:48:01.655Z,100.00
2022-09-23T08:50:43.637Z,100.00
2022-09-23T08:53:32.217Z,100.00
2022-09-23T08:56:08.896Z,100.00
2022-09-23T08:59:02.112Z,100.00
2022-09-23T09:01:45.862Z,100.00
2022-09-23T09:04:23.477Z,100.00
2022-09-23T09:07:24.612Z,100.00
2022-09-23T09:10:17.898Z,100.00
2022-09-23T09:13:12.527Z,100.00
2022-09-23T09:16:00.121Z,100.00
2022-09-23T09:18:33.341Z,100.00
2022-09-23T09:21:11.690Z,100.00
2022-09-23T09:23:46.752Z,100.00
2022-09-23T09:26:25.884Z,100.00
2022-09-23T09:29:23.837Z,100.00
2022-09-23T09:31:57.387Z,100.00
2022-09-23T09:34:41.209Z,100.00
2022-09-23T09:37:13.703Z,100.00
2022-09-23T09:39:43.197Z,100.00
2022-09-23T09:42:28.506Z,100.00
2022-09-23T09:45:06.434Z,100.00
2022-09-23T09:47:52.592Z,100.00
2022-09-23T09:51:05.414Z,100.00
2022-09-23T09:53:37.168Z,100.00
2022-09-23T09:56:12.302Z,100.00
2022-09-23T09:58:52.449Z,100.00
2022-09-23T10:01:27.127Z,100.00
2022-09-23T10:07:33.345Z,100.00
2022-09-23T10:10:34.949Z,100.00
2022-09-23T10:13:17.241Z,100.00
2022-09-23T10:16:02.211Z,100.00
2022-09-23T10:18:58.090Z,100.00
2022-09-23T10:21:34.565Z,100.00
2022-09-23T10:24:08.081Z,100.00
2022-09-23T10:26:45.868Z,100.00
2022-09-23T10:29:24.535Z,100.00
2022-09-23T10:32:31.567Z,100.00
2022-09-23T10:35:16.770Z,100.00
2022-09-23T10:37:51.987Z,100.00
2022-09-23T10:41:02.799Z,100.00
2022-09-23T10:43:59.233Z,100.00
2022-09-23T10:46:48.813Z,100.00
2022-09-23T10:49:56.445Z,100.00
2022-09-23T10:52:53.198Z,100.00
2022-09-23T10:56:03.777Z,100.00
2022-09-23T10:59:15.481Z,100.00
2022-09-23T11:02:05.390Z,100.00
2022-09-23T11:04:52.865Z,100.00
2022-09-23T11:07:40.617Z,100.00
2022-09-23T11:10:23.240Z,100.00
2022-09-23T11:13:10.203Z,100.00
2022-09-23T11:16:05.190Z,100.00
2022-09-23T11:19:09.719Z,100.00
2022-09-23T11:22:23.324Z,100.00
2022-09-23T11:24:59.284Z,100.00
2022-09-23T11:27:56.405Z,100.00
2022-09-23T11:30:44.319Z,100.00
2022-09-23T11:33:37.909Z,100.00
2022-09-23T11:36:13.727Z,100.00
2022-09-23T11:38:49.032Z,100.00
2022-09-23T11:41:29.548Z,100.00
2022-09-23T11:44:10.009Z,100.00
2022-09-23T11:47:04.977Z,100.00
2022-09-23T11:49:46.137Z,100.00
2022-09-23T11:52:33.365Z,100.00
2022-09-23T11:55:21.588Z,100.00
2022-09-23T11:57:59.406Z,100.00
2022-09-23T12:00:39.650Z,100.00
2022-09-23T12:03:26.575Z,100.00
2022-09-23T12:06:21.109Z,100.00
2022-09-23T12:08:56.718Z,100.00
2022-09-23T12:11:28.660Z,100.00
2022-09-23T12:14:17.489Z,100.00
2022-09-23T12:17:08.333Z,100.00
2022-09-23T12:20:02.383Z,100.00
2022-09-23T12:22:50.374Z,100.00
2022-09-23T12:25:44.297Z,100.00
2022-09-23T12:28:24.609Z,100.00
2022-09-23T12:30:55.966Z,100.00
2022-09-23T12:33:34.328Z,100.00
2022-09-23T12:36:09.985Z,100.00
2022-09-23T12:38:51.276Z,100.00
2022-09-23T12:41:38.651Z,100.00
2022-09-23T12:44:14.719Z,100.00
2022-09-23T12:46:47.956Z,100.00
2022-09-23T12:49:29.362Z,100.00
2022-09-23T12:52:19.597Z,100.00
2022-09-23T12:54:51.037Z,100.00
2022-09-23T12:57:35.364Z,100.00
2022-09-23T13:00:13.229Z,100.00
2022-09-23T13:03:15.068Z,100.00
2022-09-23T13:06:07.812Z,100.00
2022-09-23T13:08:42.027Z,100.00
2022-09-23T13:11:26.900Z,100.00
2022-09-23T13:14:00.963Z,100.00
2022-09-23T13:16:45.026Z,100.00
2022-09-23T13:19:38.568Z,100.00
2022-09-23T13:22:12.395Z,100.00
2022-09-23T13:24:46.909Z,100.00
2022-09-23T13:27:27.814Z,100.00
2022-09-23T13:30:15.418Z,100.00
2022-09-23T13:33:14.089Z,100.00
2022-09-23T13:35:54.316Z,100.00
2022-09-23T13:38:30.877Z,100.00
2022-09-23T13:41:09.135Z,100.00
2022-09-23T13:43:52.402Z,100.00
2022-09-23T13:46:31.339Z,100.00
2022-09-23T13:49:00.821Z,100.00
2022-09-23T13:51:36.134Z,100.00
2022-09-23T13:54:07.546Z,100.00
2022-09-23T13:56:38.765Z,100.00
2022-09-23T13:59:22.103Z,100.00
2022-09-23T14:01:51.272Z,100.00
2022-09-23T14:04:29.161Z,100.00
2022-09-23T14:06:58.772Z,100.00
2022-09-23T14:09:30.264Z,100.00
2022-09-23T14:12:02.320Z,100.00
2022-09-23T14:14:32.436Z,100.00
2022-09-23T14:17:02.521Z,100.00
2022-09-23T14:19:33.057Z,100.00
2022-09-23T14:22:02.466Z,100.00
2022-09-23T14:24:31.444Z,100.00
2022-09-23T14:27:02.553Z,100.00
2022-09-23T14:29:36.175Z,100.00
2022-09-23T14:32:26.903Z,100.00
2022-09-23T14:35:01.651Z,100.00
2022-09-23T14:37:57.960Z,100.00
2022-09-23T14:40:36.912Z,100.00
2022-09-23T14:43:07.089Z,100.00
2022-09-23T14:45:39.746Z,100.00
2022-09-23T14:48:14.178Z,100.00
2022-09-23T14:50:57.484Z,100.00
2022-09-23T14:53:44.010Z,100.00
2022-09-23T14:56:18.891Z,100.00
2022-09-23T14:58:57.829Z,100.00
2022-09-23T15:01:33.325Z,100.00
2022-09-23T15:04:14.191Z,100.00
2022-09-23T15:07:00.808Z,100.00
2022-09-23T15:09:48.237Z,100.00
2022-09-23T15:12:22.409Z,100.00
2022-09-23T15:14:55.260Z,100.00
2022-09-23T15:17:24.253Z,100.00
2022-09-23T15:20:00.279Z,100.00
2022-09-23T15:22:29.603Z,100.00
2022-09-23T15:25:19.608Z,100.00
2022-09-23T15:28:10.389Z,100.00
2022-09-23T15:30:40.926Z,100.00
2022-09-23T15:33:15.216Z,100.00
2022-09-23T15:35:48.959Z,100.00
2022-09-23T15:38:22.407Z,100.00
2022-09-23T15:40:52.034Z,100.00
2022-09-23T15:43:24.837Z,100.00
2022-09-23T15:46:03.094Z,100.00
2022-09-23T15:48:42.329Z,100.00
2022-09-23T15:51:16.270Z,100.00
2022-09-23T15:53:45.659Z,100.00
2022-09-23T15:56:14.840Z,100.00
2022-09-23T15:58:44.253Z,100.00
2022-09-23T16:01:30.785Z,100.00
2022-09-23T16:04:05.029Z,100.00
2022-09-23T16:06:36.522Z,100.00
2022-09-23T16:09:05.757Z,100.00
2022-09-23T16:11:38.421Z,100.00
2022-09-23T16:14:09.630Z,100.00
2022-09-23T16:16:38.974Z,100.00
2022-09-23T16:19:08.049Z,100.00
2022-09-23T16:21:37.048Z,100.00
2022-09-23T16:24:06.450Z,100.00
2022-09-23T16:26:36.996Z,100.00
2022-09-23T16:29:06.763Z,100.00
2022-09-23T16:31:37.291Z,100.00
2022-09-23T16:34:07.049Z,100.00
2022-09-23T16:36:43.032Z,100.00
2022-09-23T16:39:14.606Z,100.00
2022-09-23T16:41:44.499Z,100.00
2022-09-23T16:44:13.614Z,100.00
2022-09-23T16:46:44.049Z,100.00
2022-09-23T16:49:13.196Z,100.00
2022-09-23T16:51:43.226Z,100.00
2022-09-23T16:54:13.953Z,100.00
2022-09-23T16:56:46.481Z,100.00
2022-09-23T16:59:17.125Z,100.00
2022-09-23T17:02:05.488Z,100.00
2022-09-23T17:04:34.856Z,100.00
2022-09-23T17:07:03.867Z,100.00
2022-09-23T17:09:33.757Z,100.00
2022-09-23T17:12:24.676Z,100.00
2022-09-23T17:14:54.096Z,100.00
2022-09-23T17:17:23.547Z,100.00
2022-09-23T17:19:52.559Z,100.00
2022-09-23T17:22:22.076Z,100.00
2022-09-23T17:24:52.175Z,100.00
2022-09-23T17:27:22.599Z,100.00
2022-09-23T17:29:51.941Z,100.00
2022-09-23T17:32:22.228Z,100.00
2022-09-23T17:34:51.793Z,100.00
2022-09-23T17:37:21.257Z,100.00
2022-09-23T17:39:51.262Z,100.00
2022-09-23T17:42:23.206Z,100.00
2022-09-23T17:44:52.366Z,100.00
2022-09-23T17:47:21.294Z,100.00
2022-09-23T17:49:50.925Z,100.00
2022-09-23T17:52:21.083Z,100.00
2022-09-23T17:54:50.116Z,100.00
2022-09-23T17:57:19.269Z,100.00
2022-09-23T17:59:51.853Z,100.00
2022-09-23T18:02:23.762Z,100.00
2022-09-23T18:04:53.111Z,100.00
2022-09-23T18:07:22.660Z,100.00
2022-09-23T18:09:51.818Z,100.00
2022-09-23T18:12:21.161Z,100.00
2022-09-23T18:14:50.345Z,100.00
2022-09-23T18:17:19.153Z,100.00
2022-09-23T18:19:50.406Z,100.00
2022-09-23T18:22:19.494Z,100.00
2022-09-23T18:24:48.467Z,100.00
2022-09-23T18:27:17.574Z,100.00
2022-09-23T18:29:46.662Z,100.00
2022-09-23T18:32:16.247Z,100.00
2022-09-23T18:34:45.351Z,100.00
2022-09-23T18:37:16.036Z,100.00
2022-09-23T18:39:45.566Z,100.00
2022-09-23T18:42:15.283Z,100.00
2022-09-23T18:44:44.431Z,100.00
2022-09-23T18:47:33.378Z,100.00
2022-09-23T18:50:20.654Z,100.00
2022-09-23T18:52:49.987Z,100.00
2022-09-23T18:55:21.456Z,100.00
2022-09-23T18:57:51.120Z,100.00
2022-09-23T19:00:20.973Z,100.00
2022-09-23T19:02:50.029Z,100.00
2022-09-23T19:05:20.133Z,100.00
2022-09-23T19:07:49.277Z,100.00
2022-09-23T19:10:20.214Z,100.00
2022-09-23T19:12:49.512Z,100.00
2022-09-23T19:15:19.020Z,100.00
2022-09-23T19:17:48.237Z,100.00
2022-09-23T19:20:17.874Z,100.00
2022-09-23T19:22:49.002Z,100.00
2022-09-23T19:25:18.460Z,100.00
2022-09-23T19:27:47.929Z,100.00
2022-09-23T19:30:17.154Z,100.00
2022-09-23T19:32:46.549Z,100.00
2022-09-23T19:35:17.147Z,100.00
2022-09-23T19:37:49.130Z,100.00
2022-09-23T19:40:18.695Z,100.00
2022-09-23T19:42:47.664Z,100.00
2022-09-23T19:45:18.461Z,100.00
2022-09-23T19:47:47.491Z,100.00
2022-09-23T19:50:17.011Z,100.00
2022-09-23T19:52:46.050Z,100.00
2022-09-23T19:55:15.052Z,100.00
2022-09-23T19:57:44.176Z,100.00
2022-09-23T20:00:16.051Z,100.00
2022-09-23T20:02:45.362Z,100.00
2022-09-23T20:05:18.443Z,100.00
2022-09-23T20:07:49.480Z,100.00
2022-09-23T20:10:19.191Z,100.00
2022-09-23T20:12:48.701Z,100.00
2022-09-23T20:15:18.137Z,100.00
2022-09-23T20:17:47.240Z,100.00
2022-09-23T20:20:16.875Z,100.00
2022-09-23T20:22:46.450Z,100.00
2022-09-23T20:25:15.471Z,100.00
2022-09-23T20:27:44.374Z,100.00
2022-09-23T20:30:13.790Z,100.00
2022-09-23T20:32:44.739Z,100.00
2022-09-23T20:35:14.884Z,100.00
2022-09-23T20:37:44.126Z,100.00
2022-09-23T20:40:13.132Z,100.00
2022-09-23T20:42:42.258Z,100.00
2022-09-23T20:45:11.630Z,100.00
2022-09-23T20:47:40.680Z,100.00
2022-09-23T20:50:10.236Z,100.00
2022-09-23T20:52:39.183Z,100.00
2022-09-23T20:55:09.263Z,100.00
2022-09-23T20:57:38.567Z,100.00
2022-09-23T21:00:11.467Z,100.00
2022-09-23T21:02:40.728Z,100.00
2022-09-23T21:05:11.578Z,100.00
2022-09-23T21:07:40.939Z,100.00
2022-09-23T21:10:10.002Z,100.00
2022-09-23T21:12:39.340Z,100.00
2022-09-23T21:15:08.854Z,100.00
2022-09-23T21:17:37.910Z,100.00
2022-09-23T21:20:07.402Z,100.00
2022-09-23T21:22:37.084Z,100.00
2022-09-23T21:27:55.877Z,100.00
2022-09-23T21:30:25.102Z,100.00
2022-09-23T21:32:54.245Z,100.00
2022-09-23T21:35:24.768Z,100.00
2022-09-23T21:37:54.012Z,100.00
2022-09-23T21:40:41.418Z,100.00
2022-09-23T21:43:10.446Z,100.00
2022-09-23T21:45:39.676Z,100.00
2022-09-23T21:48:08.643Z,100.00
2022-09-23T21:50:41.786Z,100.00
2022-09-23T21:53:11.344Z,100.00
2022-09-23T21:55:43.326Z,100.00
2022-09-23T21:58:12.896Z,100.00
2022-09-23T22:00:41.794Z,100.00
2022-09-23T22:03:10.830Z,100.00
2022-09-23T22:05:43.165Z,100.00
2022-09-23T22:08:12.532Z,100.00
2022-09-23T22:10:41.581Z,100.00
2022-09-23T22:13:12.937Z,100.00
2022-09-23T22:15:43.220Z,100.00
2022-09-23T22:18:12.806Z,100.00
2022-09-23T22:20:42.707Z,100.00
2022-09-23T22:23:11.642Z,100.00
2022-09-23T22:25:40.955Z,100.00
2022-09-23T22:28:28.250Z,100.00
2022-09-23T22:31:17.974Z,100.00
2022-09-23T22:33:47.193Z,100.00
2022-09-23T22:36:16.399Z,100.00
2022-09-23T22:38:45.188Z,100.00
2022-09-23T22:41:16.472Z,100.00
2022-09-23T22:43:45.445Z,100.00
2022-09-23T22:46:14.651Z,100.00
2022-09-23T22:48:43.963Z,100.00
2022-09-23T22:51:13.538Z,100.00
2022-09-23T22:53:42.656Z,100.00
2022-09-23T22:56:11.609Z,100.00
2022-09-23T22:58:40.739Z,100.00
2022-09-23T23:01:12.378Z,100.00
2022-09-23T23:03:42.681Z,100.00
2022-09-23T23:06:11.923Z,100.00
2022-09-23T23:08:41.743Z,100.00
2022-09-23T23:11:11.260Z,100.00
2022-09-23T23:13:42.839Z,100.00
2022-09-23T23:16:14.284Z,100.00
2022-09-23T23:18:44.605Z,100.00
2022-09-23T23:21:15.317Z,100.00
2022-09-23T23:23:46.932Z,100.00
2022-09-23T23:26:28.093Z,100.00
2022-09-23T23:28:57.894Z,100.00
2022-09-23T23:31:29.578Z,100.00
2022-09-23T23:33:58.721Z,100.00
2022-09-23T23:36:27.692Z,100.00
2022-09-23T23:38:57.161Z,100.00
2022-09-23T23:41:26.148Z,100.00
2022-09-23T23:43:58.267Z,100.00
2022-09-23T23:46:32.669Z,100.00
2022-09-23T23:49:02.401Z,100.00
2022-09-23T23:51:31.921Z,100.00
2022-09-23T23:54:01.634Z,100.00
2022-09-23T23:56:32.875Z,100.00
2022-09-23T23:59:06.360Z,100.00
